samedi 1 mars 2014

ALERTE SPOTTING 01/03/14

763 CS-TFS Euro Atlantic
  TX515/TX515A   07h28/09h00

744 EC-KQV Pullmantur Air
  dpt PLM6021 12h25

73H TC-AVP Pegasus (sticker Asia)
   PC401/PC402  13h20/14h10

CJ5    arv 15h55


73H CN-RGN RAM (sticker 50th 737)
   arv  AT776 22h10

Manque les prévisions/immats UX / BE / AZ / TP / BA / AH
*** Heures en Local Time **
Prévisions soumises à modifications de dernières minute. Voir le log du mois pour la version 'définitive' de la journée: http://www.airkalo.com/ORLYAVIATION/Logdumois.html

le TAF de la journée



METAR: LFPO 010330Z 25005KT 9999 FEW010 BKN040 04/03 Q1001 TEMPO
4000 -RADZ BKN007=
TAF LONG: LFPO 282300Z 0100/0206 29007KT 9999 BKN015 TEMPO 0100/0109 7000
-RA BKN010 PROB40 TEMPO 0103/0108 4000 -RADZ BKN007 TEMPO 0112/0118
SCT020 SCT050 BECMG 0118/0120 VRB02KT CAVOK TEMPO 0122/0206 4000 BR
PROB40 TEMPO 0203/0206 16003KT 0800 BCFG=